Terminal Aerodrome Forecast
Issued by NWS

Home | Current Version | Previous Version | Text Only | Print | Product List | Glossary On
Versions: 1 2 3 4 5 6 7 8 9 10 11 12 13
000
FTUS43 KFGF 252040 AAA
TAFBJI
TAF AMD
KBJI 252040Z 2521/2618 18008KT P6SM OVC021
      TEMPO 2521/2524 P6SM OVC040
     FM260000 24007KT P6SM SCT150
     FM261000 30004KT P6SM SCT250=

USA.gov is the U.S. government's official web portal to all federal, state and local government web resources and services.